createdAt,value
2022-08-07T00:00:28.121Z,9.65
2022-08-07T00:02:57.040Z,7.93
2022-08-07T00:05:25.550Z,6.50
2022-08-07T00:07:59.976Z,9.65
2022-08-07T00:10:30.545Z,7.32
2022-08-07T00:13:03.337Z,7.03
2022-08-07T00:15:50.933Z,10.55
2022-08-07T00:18:24.377Z,8.18
2022-08-07T00:20:53.839Z,10.25
2022-08-07T00:23:22.206Z,5.80
2022-08-07T00:25:52.065Z,7.45
2022-08-07T00:28:33.746Z,7.57
2022-08-07T00:31:06.136Z,4.63
2022-08-07T00:33:35.653Z,8.35
2022-08-07T00:36:05.161Z,6.22
2022-08-07T00:38:34.159Z,6.53
2022-08-07T00:41:02.289Z,5.82
2022-08-07T00:43:59.176Z,5.45
2022-08-07T00:46:20.395Z,5.90
2022-08-07T00:48:51.777Z,5.07
2022-08-07T00:51:20.561Z,6.57
2022-08-07T00:53:50.128Z,5.43
2022-08-07T00:56:19.494Z,7.05
2022-08-07T00:58:49.665Z,7.07
2022-08-07T01:01:21.377Z,4.38
2022-08-07T01:03:56.055Z,4.45
2022-08-07T01:06:29.231Z,4.28
2022-08-07T01:09:00.568Z,3.50
2022-08-07T01:12:09.490Z,6.07
2022-08-07T01:14:17.361Z,4.07
2022-08-07T01:16:51.521Z,4.20
2022-08-07T01:19:20.694Z,8.85
2022-08-07T01:21:55.181Z,6.57
2022-08-07T01:24:24.514Z,4.32
2022-08-07T01:26:53.828Z,2.58
2022-08-07T01:29:27.831Z,4.32
2022-08-07T01:31:59.858Z,3.25
2022-08-07T01:34:31.409Z,9.88
2022-08-07T01:37:02.138Z,4.88
2022-08-07T01:39:41.168Z,4.30
2022-08-07T01:42:37.646Z,5.05
2022-08-07T01:45:05.227Z,3.78
2022-08-07T01:48:18.426Z,9.68
2022-08-07T01:50:29.108Z,6.32
2022-08-07T01:53:01.436Z,6.53
2022-08-07T01:55:43.792Z,4.38
2022-08-07T01:58:28.856Z,3.95
2022-08-07T02:01:25.046Z,5.43
2022-08-07T02:04:00.671Z,4.97
2022-08-07T02:06:32.633Z,4.72
2022-08-07T02:09:06.257Z,6.15
2022-08-07T02:12:03.887Z,5.30
2022-08-07T02:14:35.626Z,3.80
2022-08-07T02:17:09.458Z,3.33
2022-08-07T02:20:04.213Z,4.47
2022-08-07T02:22:32.039Z,9.27
2022-08-07T02:25:07.131Z,4.40
2022-08-07T02:27:51.927Z,3.08
2022-08-07T02:30:21.411Z,4.07
2022-08-07T02:33:00.137Z,4.35
2022-08-07T02:36:29.540Z,5.25
2022-08-07T02:38:31.947Z,4.72
2022-08-07T02:41:03.941Z,5.63
2022-08-07T02:46:02.663Z,4.97
2022-08-07T02:48:32.130Z,4.30
2022-08-07T02:51:06.808Z,5.25
2022-08-07T02:53:39.095Z,3.35
2022-08-07T02:56:17.538Z,5.43
2022-08-07T02:58:51.280Z,5.32
2022-08-07T03:01:35.714Z,4.53
2022-08-07T03:04:07.739Z,4.57
2022-08-07T03:06:44.730Z,7.47
2022-08-07T03:09:13.729Z,4.90
2022-08-07T03:11:52.351Z,3.95
2022-08-07T03:14:27.774Z,3.40
2022-08-07T03:16:56.845Z,3.88
2022-08-07T03:19:29.117Z,5.50
2022-08-07T03:22:07.162Z,4.07
2022-08-07T03:24:36.691Z,4.95
2022-08-07T03:27:09.234Z,3.40
2022-08-07T03:29:44.575Z,4.90
2022-08-07T03:32:20.050Z,4.47
2022-08-07T03:35:00.971Z,3.78
2022-08-07T03:37:46.276Z,3.67
2022-08-07T03:40:22.226Z,3.67
2022-08-07T03:42:52.294Z,5.18
2022-08-07T03:45:30.762Z,5.00
2022-08-07T03:47:59.763Z,4.53
2022-08-07T03:50:29.306Z,4.53
2022-08-07T03:52:59.620Z,6.18
2022-08-07T03:55:57.312Z,3.95
2022-08-07T03:59:05.301Z,3.92
2022-08-07T04:01:11.926Z,3.70
2022-08-07T04:03:53.407Z,5.43
2022-08-07T04:06:37.760Z,5.07
2022-08-07T04:09:15.498Z,3.90
2022-08-07T04:12:24.112Z,4.30
2022-08-07T04:14:37.676Z,4.13
2022-08-07T04:17:21.235Z,4.55
2022-08-07T04:20:00.299Z,4.28
2022-08-07T04:22:30.162Z,3.88
2022-08-07T04:25:00.889Z,3.83
2022-08-07T04:27:36.202Z,3.90
2022-08-07T04:30:35.966Z,4.70
2022-08-07T04:33:02.576Z,5.53
2022-08-07T04:35:35.853Z,3.75
2022-08-07T04:38:07.992Z,4.25
2022-08-07T04:43:22.122Z,4.50
2022-08-07T04:46:20.109Z,3.42
2022-08-07T04:49:17.859Z,4.88
2022-08-07T04:51:55.516Z,5.30
2022-08-07T04:54:32.672Z,5.45
2022-08-07T04:58:23.951Z,5.50
2022-08-07T05:00:13.179Z,5.38
2022-08-07T05:02:57.038Z,5.40
2022-08-07T05:05:54.020Z,4.95
2022-08-07T05:08:59.960Z,4.85
2022-08-07T05:11:19.445Z,5.35
2022-08-07T05:14:53.900Z,5.38
2022-08-07T05:16:47.595Z,4.57
2022-08-07T05:19:43.997Z,7.00
2022-08-07T05:22:13.433Z,5.32
2022-08-07T05:24:59.598Z,6.63
2022-08-07T05:28:02.872Z,5.28
2022-08-07T05:30:29.983Z,4.25
2022-08-07T05:33:03.416Z,5.65
2022-08-07T05:35:41.877Z,4.82
2022-08-07T05:38:11.760Z,4.85
2022-08-07T05:40:50.313Z,5.80
2022-08-07T05:43:49.883Z,7.75
2022-08-07T05:46:08.319Z,5.57
2022-08-07T05:48:37.721Z,5.35
2022-08-07T05:51:28.114Z,5.25
2022-08-07T05:54:12.531Z,6.15
2022-08-07T05:56:51.479Z,6.15
2022-08-07T05:59:22.194Z,5.07
2022-08-07T06:01:51.986Z,5.50
2022-08-07T06:04:22.464Z,6.65
2022-08-07T06:07:04.440Z,5.15
2022-08-07T06:10:04.507Z,5.15
2022-08-07T06:12:31.634Z,5.80
2022-08-07T06:15:05.854Z,6.45
2022-08-07T06:17:37.980Z,5.75
2022-08-07T06:20:12.712Z,6.00
2022-08-07T06:23:02.105Z,5.28
2022-08-07T06:25:54.057Z,5.18
2022-08-07T06:28:28.099Z,5.63
2022-08-07T06:30:58.266Z,6.35
2022-08-07T06:33:27.232Z,4.78
2022-08-07T06:36:12.273Z,6.03
2022-08-07T06:38:58.439Z,5.68
2022-08-07T06:42:00.536Z,5.72
2022-08-07T06:44:26.371Z,5.18
2022-08-07T06:47:10.380Z,6.63
2022-08-07T06:49:51.599Z,5.35
2022-08-07T06:52:31.673Z,5.65
2022-08-07T06:55:33.713Z,5.60
2022-08-07T06:57:59.464Z,5.00
2022-08-07T07:00:30.458Z,6.10
2022-08-07T07:03:01.306Z,6.28
2022-08-07T07:06:04.435Z,10.82
2022-08-07T07:08:29.790Z,7.70
2022-08-07T07:11:01.226Z,9.23
2022-08-07T07:13:57.477Z,8.38
2022-08-07T07:16:33.966Z,9.27
2022-08-07T07:19:41.028Z,9.68
2022-08-07T07:22:11.622Z,8.50
2022-08-07T07:24:48.435Z,9.05
2022-08-07T07:27:35.658Z,9.05
2022-08-07T07:30:32.466Z,8.82
2022-08-07T07:33:03.568Z,8.93
2022-08-07T07:35:54.080Z,7.60
2022-08-07T07:38:25.442Z,7.03
2022-08-07T07:41:01.729Z,8.03
2022-08-07T07:44:14.434Z,8.07
2022-08-07T07:46:39.741Z,9.60
2022-08-07T07:50:35.100Z,7.55
2022-08-07T07:52:07.902Z,6.25
2022-08-07T07:54:38.621Z,6.70
2022-08-07T07:57:14.578Z,7.13
2022-08-07T07:59:52.210Z,6.32
2022-08-07T08:02:33.919Z,6.43
2022-08-07T08:05:11.362Z,6.50
2022-08-07T08:07:59.790Z,6.03
2022-08-07T08:10:38.227Z,10.00
2022-08-07T08:13:10.291Z,5.10
2022-08-07T08:15:59.043Z,4.55
2022-08-07T08:18:30.029Z,6.78
2022-08-07T08:21:01.545Z,4.35
2022-08-07T08:23:49.533Z,4.80
2022-08-07T08:26:36.990Z,3.92
2022-08-07T08:29:06.163Z,7.93
2022-08-07T08:31:59.206Z,4.10
2022-08-07T08:34:29.302Z,5.57
2022-08-07T08:36:58.726Z,4.85
2022-08-07T08:39:39.359Z,6.80
2022-08-07T08:42:25.659Z,4.38
2022-08-07T08:45:06.518Z,3.00
2022-08-07T08:47:52.601Z,3.75
2022-08-07T08:50:39.803Z,4.87
2022-08-07T08:53:16.545Z,4.18
2022-08-07T08:55:54.609Z,4.40
2022-08-07T08:58:35.240Z,3.95
2022-08-07T09:01:18.549Z,6.18
2022-08-07T09:03:59.767Z,2.88
2022-08-07T09:06:47.557Z,2.90
2022-08-07T09:09:36.570Z,4.75
2022-08-07T09:12:20.289Z,3.05
2022-08-07T09:16:23.533Z,4.30
2022-08-07T09:18:22.623Z,3.05
2022-08-07T09:21:06.894Z,2.58
2022-08-07T09:24:31.268Z,3.30
2022-08-07T09:26:47.795Z,3.00
2022-08-07T09:30:04.096Z,4.07
2022-08-07T09:32:56.512Z,4.53
2022-08-07T09:36:03.025Z,4.22
2022-08-07T09:38:42.322Z,3.00
2022-08-07T09:41:36.302Z,2.85
2022-08-07T09:44:32.833Z,2.10
2022-08-07T09:47:51.123Z,2.55
2022-08-07T09:50:19.955Z,2.03
2022-08-07T09:52:58.236Z,2.92
2022-08-07T09:56:04.133Z,3.40
2022-08-07T09:58:58.296Z,2.75
2022-08-07T10:01:51.717Z,2.75
2022-08-07T10:04:57.105Z,3.15
2022-08-07T10:07:52.633Z,3.97
2022-08-07T10:11:07.815Z,3.67
2022-08-07T10:13:58.350Z,4.20
2022-08-07T10:16:39.406Z,2.88
2022-08-07T10:19:23.362Z,2.33
2022-08-07T10:22:15.752Z,3.42
2022-08-07T10:24:54.915Z,1.90
2022-08-07T10:27:56.935Z,2.75
2022-08-07T10:30:32.193Z,2.25
2022-08-07T10:33:23.585Z,2.20
2022-08-07T10:36:29.636Z,3.72
2022-08-07T10:39:05.613Z,3.40
2022-08-07T10:41:46.444Z,1.92
2022-08-07T10:44:38.433Z,2.70
2022-08-07T10:47:27.150Z,2.17
2022-08-07T10:50:15.891Z,2.78
2022-08-07T10:52:59.878Z,3.53
2022-08-07T10:55:43.520Z,2.53
2022-08-07T10:58:31.938Z,2.72
2022-08-07T11:01:23.797Z,3.03
2022-08-07T11:04:23.037Z,2.35
2022-08-07T11:06:59.537Z,3.42
2022-08-07T11:10:09.374Z,2.97
2022-08-07T11:12:31.686Z,2.30
2022-08-07T11:15:09.594Z,2.28
2022-08-07T11:17:49.818Z,3.88
2022-08-07T11:20:25.477Z,1.95
2022-08-07T11:23:03.693Z,2.08
2022-08-07T11:25:47.903Z,2.17
2022-08-07T11:28:24.736Z,3.47
2022-08-07T11:30:59.357Z,2.38
2022-08-07T11:33:59.242Z,1.80
2022-08-07T11:36:54.073Z,3.03
2022-08-07T11:39:59.993Z,2.63
2022-08-07T11:42:40.493Z,6.03
2022-08-07T11:45:20.511Z,3.30
2022-08-07T11:48:18.273Z,6.15
2022-08-07T11:51:10.893Z,4.50
2022-08-07T11:54:11.823Z,4.35
2022-08-07T11:56:56.267Z,6.05
2022-08-07T12:00:11.220Z,4.55
2022-08-07T12:03:45.406Z,7.68
2022-08-07T12:06:39.639Z,4.25
2022-08-07T12:09:16.062Z,7.80
2022-08-07T12:12:10.395Z,5.57
2022-08-07T12:14:56.134Z,4.97
2022-08-07T12:17:34.294Z,5.60
2022-08-07T12:20:12.912Z,5.78
2022-08-07T12:24:07.006Z,3.65
2022-08-07T12:26:33.618Z,4.13
2022-08-07T12:29:12.852Z,4.88
2022-08-07T12:31:53.304Z,5.25
2022-08-07T12:34:37.890Z,4.07
2022-08-07T12:37:08.635Z,3.50
2022-08-07T12:39:50.804Z,5.38
2022-08-07T12:42:27.504Z,5.97
2022-08-07T12:44:59.397Z,3.85
2022-08-07T12:47:37.764Z,4.90
2022-08-07T12:50:33.786Z,4.60
2022-08-07T12:53:18.646Z,4.65
2022-08-07T12:56:03.623Z,5.28
2022-08-07T12:58:39.333Z,3.75
2022-08-07T13:01:18.375Z,5.38
2022-08-07T13:04:13.650Z,3.83
2022-08-07T13:07:21.303Z,4.63
2022-08-07T13:10:39.587Z,3.53
2022-08-07T13:13:48.212Z,3.45
2022-08-07T13:16:17.641Z,4.25
2022-08-07T13:18:58.637Z,3.10
2022-08-07T13:21:50.463Z,3.33
2022-08-07T13:24:25.871Z,2.95
2022-08-07T13:27:05.642Z,3.03
2022-08-07T13:29:47.741Z,4.05
2022-08-07T13:32:32.444Z,4.05
2022-08-07T13:35:10.451Z,6.03
2022-08-07T13:37:55.493Z,4.22
2022-08-07T13:40:36.154Z,5.50
2022-08-07T13:43:16.866Z,3.97
2022-08-07T13:46:11.958Z,4.57
2022-08-07T13:48:58.698Z,2.60
2022-08-07T13:52:25.920Z,3.58
2022-08-07T13:54:23.728Z,2.65
2022-08-07T13:56:59.749Z,4.35
2022-08-07T13:59:32.342Z,3.53
2022-08-07T14:02:08.555Z,8.05
2022-08-07T14:04:50.073Z,5.70
2022-08-07T14:07:22.818Z,3.58
2022-08-07T14:10:17.658Z,4.95
2022-08-07T14:12:54.127Z,4.68
2022-08-07T14:15:31.610Z,4.10
2022-08-07T14:18:27.061Z,3.92
2022-08-07T14:21:00.375Z,5.30
2022-08-07T14:24:00.282Z,5.32
2022-08-07T14:26:33.511Z,6.07
2022-08-07T14:30:02.932Z,4.60
2022-08-07T14:34:30.630Z,4.53
2022-08-07T14:37:03.034Z,6.03
2022-08-07T14:40:18.192Z,4.57
2022-08-07T14:43:55.791Z,44.92
2022-08-07T14:45:46.703Z,53.63
2022-08-07T14:48:21.149Z,44.67
2022-08-07T14:50:53.202Z,37.28
2022-08-07T14:54:05.555Z,34.28
2022-08-07T14:56:29.986Z,35.35
2022-08-07T14:59:02.984Z,33.78
2022-08-07T15:01:42.388Z,33.72
2022-08-07T15:04:13.361Z,36.63
2022-08-07T15:06:47.742Z,34.35
2022-08-07T15:09:58.797Z,31.35
2022-08-07T15:15:07.771Z,32.30
2022-08-07T15:17:54.867Z,30.42
2022-08-07T15:23:20.949Z,36.30
2022-08-07T15:25:56.889Z,30.70
2022-08-07T15:32:01.779Z,29.65
2022-08-07T15:34:15.064Z,22.75
2022-08-07T15:37:04.247Z,25.42
2022-08-07T15:39:56.948Z,30.15
2022-08-07T15:42:54.411Z,30.35
2022-08-07T15:45:56.503Z,19.42
2022-08-07T15:51:18.021Z,20.05
2022-08-07T15:53:52.831Z,18.60
2022-08-07T15:56:25.878Z,16.25
2022-08-07T15:58:59.269Z,23.88
2022-08-07T16:01:38.494Z,16.63
2022-08-07T16:04:14.856Z,15.50
2022-08-07T16:06:49.325Z,14.80
2022-08-07T16:09:23.165Z,15.80
2022-08-07T16:12:04.569Z,12.35
2022-08-07T16:14:59.128Z,16.98
2022-08-07T16:18:02.951Z,15.32
2022-08-07T16:20:55.302Z,15.35
2022-08-07T16:23:58.352Z,14.15
2022-08-07T16:26:58.938Z,16.92
2022-08-07T16:30:11.619Z,13.77
2022-08-07T16:32:53.923Z,16.45
2022-08-07T16:35:51.989Z,12.27
2022-08-07T16:39:00.687Z,18.92
2022-08-07T16:41:48.722Z,18.02
2022-08-07T16:45:07.278Z,17.63
2022-08-07T16:48:00.439Z,13.07
2022-08-07T16:51:13.500Z,14.27
2022-08-07T16:54:01.894Z,15.55
2022-08-07T16:56:37.293Z,15.10
2022-08-07T16:59:11.010Z,15.85
2022-08-07T17:01:57.387Z,15.57
2022-08-07T17:04:50.898Z,12.00
2022-08-07T17:07:55.346Z,14.02
2022-08-07T17:10:35.099Z,14.77
2022-08-07T17:13:41.312Z,10.30
2022-08-07T17:16:18.650Z,12.85
2022-08-07T17:19:00.608Z,14.30
2022-08-07T17:21:51.844Z,13.10
2022-08-07T17:24:43.041Z,12.75
2022-08-07T17:27:19.974Z,10.45
2022-08-07T17:30:14.047Z,7.90
2022-08-07T17:32:59.631Z,4.85
2022-08-07T17:38:35.128Z,2.58
2022-08-07T17:42:00.954Z,4.30
2022-08-07T17:44:08.242Z,6.18
2022-08-07T17:46:52.631Z,2.45
2022-08-07T17:49:24.869Z,2.20
2022-08-07T17:52:01.330Z,2.45
2022-08-07T17:54:40.084Z,1.70
2022-08-07T18:00:27.555Z,3.80
2022-08-07T18:03:09.563Z,2.22
2022-08-07T18:06:02.293Z,4.38
2022-08-07T18:08:34.997Z,4.10
2022-08-07T18:12:07.518Z,2.15
2022-08-07T18:14:05.849Z,3.72
2022-08-07T18:16:57.541Z,2.22
2022-08-07T18:21:08.595Z,1.85
2022-08-07T18:22:31.868Z,3.42
2022-08-07T18:25:19.290Z,2.78
2022-08-07T18:28:34.507Z,3.83
2022-08-07T18:31:05.497Z,3.17
2022-08-07T18:34:37.192Z,4.78
2022-08-07T18:37:15.075Z,2.97
2022-08-07T18:40:42.874Z,4.50
2022-08-07T18:43:15.208Z,2.83
2022-08-07T18:46:21.884Z,3.60
2022-08-07T18:50:35.024Z,3.78
2022-08-07T18:52:33.559Z,2.13
2022-08-07T18:54:37.049Z,4.53
2022-08-07T18:57:30.253Z,3.35
2022-08-07T19:00:34.389Z,2.30
2022-08-07T19:03:11.678Z,2.22
2022-08-07T19:06:01.950Z,1.85
2022-08-07T19:08:46.598Z,2.22
2022-08-07T19:11:36.664Z,3.45
2022-08-07T19:14:16.936Z,2.85
2022-08-07T19:17:08.264Z,2.55
2022-08-07T19:19:53.257Z,3.30
2022-08-07T19:22:30.719Z,2.30
2022-08-07T19:25:05.671Z,3.70
2022-08-07T19:28:56.496Z,2.72
2022-08-07T19:31:04.297Z,3.35
2022-08-07T19:33:33.555Z,3.40
2022-08-07T19:38:52.577Z,4.45
2022-08-07T19:41:44.305Z,3.28
2022-08-07T19:44:21.770Z,2.63
2022-08-07T19:46:58.001Z,4.68
2022-08-07T19:49:58.076Z,2.30
2022-08-07T19:52:28.644Z,7.13
2022-08-07T19:54:58.304Z,4.30
2022-08-07T19:58:03.351Z,4.07
2022-08-07T20:00:28.927Z,2.77
2022-08-07T20:03:02.338Z,3.28
2022-08-07T20:05:59.866Z,4.22
2022-08-07T20:08:28.353Z,2.47
2022-08-07T20:11:04.019Z,2.92
2022-08-07T20:13:46.622Z,3.42
2022-08-07T20:16:35.611Z,4.05
2022-08-07T20:19:09.940Z,3.42
2022-08-07T20:21:47.506Z,3.28
2022-08-07T20:24:20.418Z,2.58
2022-08-07T20:26:52.279Z,3.90
2022-08-07T20:29:49.157Z,4.28
2022-08-07T20:32:22.972Z,2.70
2022-08-07T20:34:57.266Z,3.58
2022-08-07T20:40:02.394Z,5.25
2022-08-07T20:42:34.544Z,5.85
2022-08-07T20:45:33.770Z,4.53
2022-08-07T20:47:58.619Z,7.32
2022-08-07T20:50:30.616Z,5.55
2022-08-07T20:53:00.413Z,17.55
2022-08-07T20:55:32.020Z,12.45
2022-08-07T20:58:03.964Z,20.27
2022-08-07T21:00:48.186Z,17.88
2022-08-07T21:03:25.795Z,15.63
2022-08-07T21:05:57.922Z,18.10
2022-08-07T21:08:37.756Z,21.85
2022-08-07T21:11:14.501Z,23.38
2022-08-07T21:14:16.779Z,41.10
2022-08-07T21:16:56.321Z,26.80
2022-08-07T21:19:51.509Z,30.52
2022-08-07T21:22:28.337Z,33.40
2022-08-07T21:28:01.719Z,30.10
2022-08-07T21:30:41.835Z,30.58
2022-08-07T21:33:17.684Z,27.20
2022-08-07T21:36:04.109Z,22.48
2022-08-07T21:38:50.016Z,27.95
2022-08-07T21:41:38.263Z,25.35
2022-08-07T21:44:28.320Z,21.30
2022-08-07T21:47:02.430Z,24.25
2022-08-07T21:50:02.588Z,24.42
2022-08-07T21:52:37.378Z,19.77
2022-08-07T21:55:16.113Z,21.27
2022-08-07T21:58:12.086Z,17.85
2022-08-07T22:00:43.785Z,15.05
2022-08-07T22:03:18.885Z,16.65
2022-08-07T22:06:02.865Z,15.05
2022-08-07T22:08:38.732Z,16.50
2022-08-07T22:11:08.677Z,16.50
2022-08-07T22:13:51.363Z,18.55
2022-08-07T22:16:44.688Z,14.10
2022-08-07T22:19:20.093Z,15.60
2022-08-07T22:22:17.796Z,14.45
2022-08-07T22:25:03.232Z,15.57
2022-08-07T22:28:20.128Z,17.52
2022-08-07T22:30:36.990Z,11.18
2022-08-07T22:33:09.159Z,9.45
2022-08-07T22:35:42.028Z,13.02
2022-08-07T22:38:20.544Z,14.23
2022-08-07T22:40:59.970Z,12.95
2022-08-07T22:43:37.285Z,13.35
2022-08-07T22:47:04.430Z,8.52
2022-08-07T22:49:54.541Z,9.90
2022-08-07T22:52:39.616Z,9.10
2022-08-07T22:55:47.570Z,12.07
2022-08-07T22:58:48.822Z,8.10
2022-08-07T23:01:49.414Z,10.48
2022-08-07T23:04:56.963Z,14.20
2022-08-07T23:07:44.992Z,8.88
2022-08-07T23:10:37.561Z,9.18
2022-08-07T23:13:48.971Z,11.52
2022-08-07T23:16:46.470Z,9.05
2022-08-07T23:20:07.603Z,7.82
2022-08-07T23:22:52.183Z,7.38
2022-08-07T23:25:33.632Z,8.45
2022-08-07T23:28:29.180Z,9.02
2022-08-07T23:31:43.047Z,5.47
2022-08-07T23:34:22.145Z,9.23
2022-08-07T23:37:29.296Z,5.05
2022-08-07T23:40:13.711Z,8.30
2022-08-07T23:43:17.076Z,8.02
2022-08-07T23:46:02.830Z,7.18
2022-08-07T23:48:51.585Z,4.47
2022-08-07T23:52:59.666Z,6.72
2022-08-07T23:54:44.365Z,6.03
2022-08-07T23:57:22.364Z,7.00
